Time;durP1;ratioP1;P1;durP2;ratioP2;P2;SDS_P1;SDS_P2;PMS_P1;PMS_P2;Temp;Humidity;BMP_temperature;BMP_pressure;BME280_temperature;BME280_humidity;BME280_pressure;Samples;Min_cycle;Max_cycle;Signal;HPM_P1;HPM_P2
2023/09/22 00:01:55;;;;;;;20.98;14.02;;;15.10;99.90;;;;;;5081599;28;20072;-31
2023/09/22 00:04:21;;;;;;;16.70;13.70;;;15.10;99.90;;;;;;5072194;28;20040;-33
2023/09/22 00:06:46;;;;;;;14.75;13.25;;;15.10;99.90;;;;;;5072024;28;20506;-33
2023/09/22 00:09:12;;;;;;;16.42;13.75;;;15.10;99.90;;;;;;5072053;28;20036;-31
2023/09/22 00:11:37;;;;;;;14.80;12.80;;;15.10;99.90;;;;;;5072170;28;20036;-32
2023/09/22 00:14:04;;;;;;;17.55;13.68;;;15.10;99.90;;;;;;5072015;28;20033;-32
2023/09/22 00:16:30;;;;;;;15.32;13.73;;;15.10;99.90;;;;;;5072090;28;20435;-32
2023/09/22 00:18:55;;;;;;;15.30;13.43;;;15.10;99.90;;;;;;5071920;28;20082;-33
2023/09/22 00:21:21;;;;;;;15.55;13.73;;;15.10;99.90;;;;;;5071993;28;20116;-31
2023/09/22 00:23:47;;;;;;;14.13;12.32;;;15.10;99.90;;;;;;5071814;28;20394;-31
2023/09/22 00:26:13;;;;;;;17.55;13.07;;;15.10;99.90;;;;;;5072097;28;20119;-32
2023/09/22 00:28:39;;;;;;;15.85;13.13;;;15.10;99.90;;;;;;5071971;28;20514;-32
2023/09/22 00:31:05;;;;;;;14.02;12.48;;;15.10;99.90;;;;;;5071833;28;20138;-32
2023/09/22 00:33:31;;;;;;;14.48;12.32;;;15.10;99.90;;;;;;5075899;28;20170;-31
2023/09/22 00:36:03;;;;;;;14.88;12.35;;;15.10;99.90;;;;;;5075769;28;20641;-32
2023/09/22 00:38:29;;;;;;;13.15;11.85;;;15.10;99.90;;;;;;5075817;28;20135;-32
2023/09/22 00:40:55;;;;;;;14.23;12.38;;;15.10;99.90;;;;;;5075414;28;20044;-32
2023/09/22 00:43:21;;;;;;;14.27;11.63;;;15.10;99.90;;;;;;5057419;28;20036;-32
2023/09/22 00:45:50;;;;;;;13.65;11.68;;;15.10;99.90;;;;;;5075380;28;20508;-33
2023/09/22 00:48:31;;;;;;;13.70;11.63;;;15.10;99.90;;;;;;5075988;28;20040;-31
2023/09/22 00:50:58;;;;;;;14.00;12.15;;;15.10;99.90;;;;;;5075416;28;20083;-31
2023/09/22 00:53:24;;;;;;;14.80;12.10;;;15.10;99.90;;;;;;5075144;28;20048;-31
2023/09/22 00:55:51;;;;;;;12.93;11.63;;;15.10;99.90;;;;;;5075832;28;20051;-31
2023/09/22 00:58:18;;;;;;;14.23;12.15;;;15.10;99.90;;;;;;5075321;28;20403;-33
2023/09/22 01:00:47;;;;;;;14.20;12.25;;;15.10;99.90;;;;;;5075438;28;20044;-32
2023/09/22 01:03:14;;;;;;;14.43;11.73;;;15.00;99.90;;;;;;5075026;28;20071;-32
2023/09/22 01:05:39;;;;;;;17.10;11.98;;;15.00;99.90;;;;;;5075199;28;20079;-32
2023/09/22 01:08:05;;;;;;;13.20;11.80;;;15.00;99.90;;;;;;5075160;28;20290;-32
2023/09/22 01:10:38;;;;;;;13.85;12.45;;;15.00;99.90;;;;;;5074930;28;20079;-32
2023/09/22 01:13:05;;;;;;;13.85;11.30;;;15.00;99.90;;;;;;5074969;28;20086;-32
2023/09/22 01:15:36;;;;;;;13.40;11.25;;;15.00;99.90;;;;;;5074956;28;20036;-33
2023/09/22 01:18:04;;;;;;;12.77;11.40;;;15.00;99.90;;;;;;5075110;28;20041;-33
2023/09/22 01:20:30;;;;;;;14.93;12.07;;;15.00;99.90;;;;;;5056696;28;20044;-32
2023/09/22 01:22:56;;;;;;;13.63;11.80;;;15.00;99.90;;;;;;5074864;28;20032;-32
2023/09/22 01:25:22;;;;;;;14.73;12.30;;;15.00;99.90;;;;;;5074856;28;20120;-32
2023/09/22 01:27:48;;;;;;;14.73;12.43;;;15.00;99.90;;;;;;5074985;28;20510;-32
2023/09/22 01:30:15;;;;;;;15.18;12.50;;;15.00;99.90;;;;;;5074936;28;20043;-32
2023/09/22 01:32:41;;;;;;;13.98;12.18;;;15.00;99.90;;;;;;5074780;28;20499;-32
2023/09/22 01:35:07;;;;;;;14.48;12.32;;;15.00;99.90;;;;;;5074978;28;20044;-33
2023/09/22 01:37:52;;;;;;;15.38;12.95;;;15.00;99.90;;;;;;5074200;28;20066;-32
2023/09/22 01:40:17;;;;;;;16.40;12.60;;;15.00;99.90;;;;;;5074483;28;20040;-32
2023/09/22 01:42:43;;;;;;;16.33;13.32;;;15.00;99.90;;;;;;5075249;28;20029;-34
2023/09/22 01:45:10;;;;;;;16.27;13.55;;;15.00;99.90;;;;;;5091436;28;20036;-36
2023/09/22 01:47:36;;;;;;;15.40;13.20;;;15.00;99.90;;;;;;5087045;28;20044;-32
2023/09/22 01:50:02;;;;;;;16.38;13.38;;;15.00;99.90;;;;;;5093300;28;20044;-32
2023/09/22 01:52:28;;;;;;;16.02;13.75;;;15.00;99.90;;;;;;5094544;28;20036;-32
2023/09/22 01:54:54;;;;;;;16.13;13.88;;;15.00;99.90;;;;;;5094564;28;20489;-33
2023/09/22 01:57:20;;;;;;;15.73;13.77;;;15.00;99.90;;;;;;5094610;28;20036;-32
2023/09/22 01:59:46;;;;;;;16.55;13.73;;;15.00;99.90;;;;;;5094214;28;20084;-32
2023/09/22 02:02:13;;;;;;;17.08;14.25;;;15.00;99.90;;;;;;5094665;28;20068;-32
2023/09/22 02:04:39;;;;;;;17.58;14.48;;;15.00;99.90;;;;;;5094426;28;20444;-32
2023/09/22 02:07:05;;;;;;;17.27;14.60;;;15.00;99.90;;;;;;5094423;28;20048;-32
2023/09/22 02:09:30;;;;;;;17.55;14.75;;;15.00;99.90;;;;;;5094442;28;20028;-31
2023/09/22 02:11:56;;;;;;;18.40;14.00;;;14.90;99.90;;;;;;5094575;28;20043;-32
2023/09/22 02:14:22;;;;;;;15.82;13.65;;;14.90;99.90;;;;;;5094334;28;20044;-31
2023/09/22 02:16:48;;;;;;;16.65;13.73;;;14.90;99.90;;;;;;5094040;28;20486;-32
2023/09/22 02:19:14;;;;;;;16.48;14.15;;;14.90;99.90;;;;;;5094204;28;20050;-32
2023/09/22 02:21:40;;;;;;;19.25;14.88;;;14.80;99.90;;;;;;5093741;28;20479;-32
2023/09/22 02:24:06;;;;;;;17.00;14.18;;;14.80;99.90;;;;;;5093990;28;20040;-31
2023/09/22 02:26:32;;;;;;;18.25;14.60;;;14.80;99.90;;;;;;5093942;28;20051;-31
2023/09/22 02:28:57;;;;;;;21.48;15.88;;;14.70;99.90;;;;;;5093871;28;20039;-31
2023/09/22 02:31:24;;;;;;;17.50;14.48;;;14.70;99.90;;;;;;5094034;28;20035;-31
2023/09/22 02:33:49;;;;;;;16.50;14.75;;;14.70;99.90;;;;;;5093547;28;20047;-31
2023/09/22 02:36:18;;;;;;;21.48;15.15;;;14.70;99.90;;;;;;5093819;28;20482;-32
2023/09/22 02:38:44;;;;;;;20.02;15.43;;;14.70;99.90;;;;;;5093629;28;20040;-32
2023/09/22 02:41:14;;;;;;;18.10;14.80;;;14.70;99.90;;;;;;5093281;28;20470;-32
2023/09/22 02:43:40;;;;;;;20.10;15.55;;;14.70;99.90;;;;;;5113763;28;20498;-32
2023/09/22 02:46:05;;;;;;;21.40;15.18;;;14.70;99.90;;;;;;5114113;28;20043;-33
2023/09/22 02:48:31;;;;;;;19.75;15.68;;;14.70;99.90;;;;;;5114021;28;20371;-32
2023/09/22 02:50:57;;;;;;;20.08;15.85;;;14.70;99.90;;;;;;5114111;28;20040;-32
2023/09/22 02:53:23;;;;;;;20.95;15.75;;;14.70;99.90;;;;;;5113714;28;20406;-31
2023/09/22 02:55:49;;;;;;;20.45;15.77;;;14.70;99.90;;;;;;5113121;28;20486;-32
2023/09/22 02:58:15;;;;;;;22.60;16.52;;;14.70;99.90;;;;;;5113837;28;20076;-32
2023/09/22 03:00:44;;;;;;;20.42;16.33;;;14.70;99.90;;;;;;5113354;28;20097;-32
2023/09/22 03:03:12;;;;;;;21.52;16.55;;;14.70;99.90;;;;;;5113826;28;20367;-32
2023/09/22 03:05:38;;;;;;;18.35;15.50;;;14.70;99.90;;;;;;5095069;28;20039;-32
2023/09/22 03:08:04;;;;;;;19.15;15.52;;;14.70;99.90;;;;;;5113536;28;20039;-32
2023/09/22 03:10:31;;;;;;;18.30;15.23;;;14.60;99.90;;;;;;5113304;28;20040;-34
2023/09/22 03:12:57;;;;;;;19.08;16.10;;;14.60;99.90;;;;;;5113393;28;20481;-32
2023/09/22 03:15:23;;;;;;;19.17;14.68;;;14.60;99.90;;;;;;5113514;28;20081;-32
2023/09/22 03:17:49;;;;;;;20.10;16.25;;;14.60;99.90;;;;;;5113312;28;20089;-32
2023/09/22 03:20:16;;;;;;;17.25;13.77;;;14.60;99.90;;;;;;5113417;28;20040;-32
2023/09/22 03:22:43;;;;;;;16.98;12.70;;;14.60;99.90;;;;;;5113394;28;20065;-32
2023/09/22 03:25:10;;;;;;;15.63;12.30;;;14.60;99.90;;;;;;5113302;28;20447;-32
2023/09/22 03:27:37;;;;;;;14.52;11.65;;;14.60;99.90;;;;;;5113542;28;20100;-32
2023/09/22 03:30:05;;;;;;;14.70;12.35;;;14.50;99.90;;;;;;5113104;28;20082;-33
2023/09/22 03:32:32;;;;;;;18.33;12.10;;;14.50;99.90;;;;;;5113329;28;20039;-33
2023/09/22 03:34:57;;;;;;;16.35;11.82;;;14.50;99.90;;;;;;5113039;28;20047;-32
2023/09/22 03:37:27;;;;;;;14.90;11.82;;;14.50;99.90;;;;;;5112780;28;20043;-32
2023/09/22 03:39:56;;;;;;;14.73;11.80;;;14.40;99.90;;;;;;5112915;28;20043;-32
2023/09/22 03:42:23;;;;;;;14.82;11.40;;;14.40;99.90;;;;;;5116953;22;20051;-87
2023/09/22 03:44:48;;;;;;;16.55;11.73;;;14.50;99.90;;;;;;5091954;28;20048;-88
2023/09/22 03:47:14;;;;;;;14.32;11.70;;;14.40;99.90;;;;;;5071468;28;20516;-85
2023/09/22 03:49:40;;;;;;;16.98;10.82;;;14.40;99.90;;;;;;5088670;28;20035;-86
2023/09/22 03:52:06;;;;;;;18.08;12.77;;;14.40;99.90;;;;;;5088841;28;20089;-88
2023/09/22 03:54:31;;;;;;;15.30;11.68;;;14.40;99.90;;;;;;5105883;28;20090;-88
2023/09/22 03:56:57;;;;;;;18.65;13.77;;;14.40;99.90;;;;;;5087289;28;20111;-89
2023/09/22 03:59:23;;;;;;;17.45;13.35;;;14.40;99.90;;;;;;5067759;28;20046;-87
2023/09/22 04:01:48;;;;;;;22.58;16.15;;;14.40;99.90;;;;;;5087793;28;20027;-87
2023/09/22 04:04:14;;;;;;;20.90;15.18;;;14.40;99.90;;;;;;5072851;28;20027;-88
2023/09/22 04:06:40;;;;;;;21.95;15.45;;;14.30;99.90;;;;;;5083033;28;20075;-88
2023/09/22 04:09:07;;;;;;;20.60;15.32;;;14.30;99.90;;;;;;5083716;28;20031;-88
2023/09/22 04:11:36;;;;;;;23.52;16.13;;;14.20;99.90;;;;;;5068088;28;20067;-87
2023/09/22 04:14:02;;;;;;;23.98;17.10;;;14.20;99.90;;;;;;5086194;28;20035;-88
2023/09/22 04:16:28;;;;;;;23.88;16.77;;;14.10;99.90;;;;;;5070918;28;20039;-87
2023/09/22 04:18:54;;;;;;;23.77;17.67;;;14.00;99.90;;;;;;5084245;28;20027;-88
2023/09/22 04:21:22;;;;;;;23.55;18.30;;;13.90;99.90;;;;;;5066178;28;20505;-88
2023/09/22 04:23:57;;;;;;;26.27;18.90;;;13.90;99.90;;;;;;5067359;28;20032;-88
2023/09/22 04:26:29;;;;;;;25.40;18.48;;;13.70;99.90;;;;;;5084157;28;20062;-88
2023/09/22 04:28:56;;;;;;;26.90;19.38;;;13.80;99.90;;;;;;5087188;28;20123;-88
2023/09/22 04:31:26;;;;;;;26.40;19.00;;;13.70;99.90;;;;;;5062368;28;20093;-88
2023/09/22 04:33:52;;;;;;;27.27;19.25;;;13.60;99.90;;;;;;5089587;28;20067;-87
2023/09/22 04:36:22;;;;;;;34.33;20.95;;;13.60;99.90;;;;;;5084624;28;20032;-88
2023/09/22 04:38:50;;;;;;;28.02;19.98;;;13.70;99.90;;;;;;5074522;28;20043;-87
2023/09/22 04:41:19;;;;;;;27.40;20.05;;;13.50;99.90;;;;;;5065191;28;20063;-87
2023/09/22 04:43:48;;;;;;;27.08;20.17;;;13.50;99.90;;;;;;5071138;28;20066;-88
2023/09/22 04:46:15;;;;;;;29.52;20.05;;;13.50;99.90;;;;;;5086444;28;20040;-87
2023/09/22 04:48:41;;;;;;;32.25;20.45;;;13.40;99.90;;;;;;5085852;28;20036;-88
2023/09/22 04:51:07;;;;;;;29.33;20.60;;;13.40;99.90;;;;;;5079435;28;20425;-87
2023/09/22 04:53:33;;;;;;;29.83;20.30;;;13.40;99.90;;;;;;5069276;28;20051;-87
2023/09/22 04:56:00;;;;;;;30.67;21.23;;;13.30;99.90;;;;;;5081202;28;20486;-88
2023/09/22 04:58:26;;;;;;;30.05;21.25;;;13.30;99.90;;;;;;5074609;28;20062;-86
2023/09/22 05:00:58;;;;;;;31.35;21.85;;;13.30;99.90;;;;;;5070754;28;20217;-86
2023/09/22 05:03:25;;;;;;;32.00;22.75;;;13.30;99.90;;;;;;5070786;28;20490;-86
2023/09/22 05:05:53;;;;;;;29.58;21.45;;;13.20;99.90;;;;;;5068714;28;20119;-88
2023/09/22 05:08:19;;;;;;;29.23;20.65;;;13.20;99.90;;;;;;5083372;28;20039;-88
2023/09/22 05:10:49;;;;;;;33.10;23.58;;;13.30;99.90;;;;;;5070534;28;20044;-87
2023/09/22 05:13:17;;;;;;;34.60;23.80;;;13.20;99.90;;;;;;5078839;28;20410;-88
2023/09/22 05:15:43;;;;;;;33.42;22.15;;;13.20;99.90;;;;;;5063089;28;20040;-87
2023/09/22 05:18:15;;;;;;;31.90;21.98;;;13.10;99.90;;;;;;5067912;28;20042;-88
2023/09/22 05:20:41;;;;;;;35.63;24.35;;;13.10;99.90;;;;;;5078595;28;20055;-87
2023/09/22 05:23:08;;;;;;;35.28;22.88;;;13.10;99.90;;;;;;5072378;28;20028;-86
2023/09/22 05:25:46;;;;;;;38.13;24.13;;;13.00;99.90;;;;;;5066624;28;20558;-87
2023/09/22 05:28:11;;;;;;;35.92;22.85;;;13.00;99.90;;;;;;5069520;28;20040;-86
2023/09/22 05:30:39;;;;;;;35.33;23.80;;;13.00;99.90;;;;;;5064977;28;20047;-87
2023/09/22 05:33:07;;;;;;;35.15;22.10;;;13.00;99.90;;;;;;5081086;28;20036;-88
2023/09/22 05:35:37;;;;;;;34.33;23.02;;;13.00;99.90;;;;;;5068222;28;20032;-86
2023/09/22 05:38:03;;;;;;;34.08;22.08;;;13.00;99.90;;;;;;5081291;28;20154;-87
2023/09/22 05:40:35;;;;;;;30.35;21.45;;;13.00;99.90;;;;;;5077322;28;20040;-86
2023/09/22 05:43:05;;;;;;;29.98;20.80;;;13.00;99.90;;;;;;5073565;28;20036;-87
2023/09/22 05:45:31;;;;;;;31.63;20.58;;;13.10;99.90;;;;;;5077368;28;20091;-88
2023/09/22 05:48:00;;;;;;;32.75;18.70;;;13.10;99.90;;;;;;5075606;28;20072;-86
2023/09/22 05:50:26;;;;;;;28.83;19.00;;;13.10;99.90;;;;;;5091406;28;20032;-86
2023/09/22 05:52:51;;;;;;;27.15;17.10;;;13.10;99.90;;;;;;5091266;28;20036;-87
2023/09/22 05:55:22;;;;;;;26.42;17.90;;;13.10;99.90;;;;;;5080723;28;20062;-86
2023/09/22 05:57:51;;;;;;;26.85;16.90;;;13.20;99.90;;;;;;5084869;28;20451;-88
2023/09/22 06:00:23;;;;;;;26.05;16.38;;;13.20;99.90;;;;;;5074409;28;20024;-88
2023/09/22 06:02:55;;;;;;;26.27;17.27;;;13.20;99.90;;;;;;5086154;28;20099;-90
2023/09/22 06:05:26;;;;;;;23.13;14.98;;;13.20;99.90;;;;;;5073354;28;20031;-87
2023/09/22 06:07:54;;;;;;;24.45;15.57;;;13.20;99.90;;;;;;5083419;28;20514;-88
2023/09/22 06:10:20;;;;;;;25.42;15.77;;;13.20;99.90;;;;;;5068700;28;20036;-89
2023/09/22 06:12:46;;;;;;;27.00;15.75;;;13.20;99.90;;;;;;5088876;28;20047;-87
2023/09/22 06:15:58;;;;;;;24.20;15.00;;;13.20;99.90;;;;;;5068349;28;20032;-90
2023/09/22 06:18:37;;;;;;;23.15;14.77;;;13.30;99.90;;;;;;5075248;28;20039;-90
2023/09/22 06:21:04;;;;;;;19.70;13.68;;;13.30;99.90;;;;;;5070957;28;20040;-88
2023/09/22 06:23:33;;;;;;;22.05;14.00;;;13.30;99.90;;;;;;5084692;28;20051;-89
2023/09/22 06:26:04;;;;;;;23.15;14.15;;;13.30;99.90;;;;;;5099374;28;20497;-88
2023/09/22 06:28:31;;;;;;;20.02;13.25;;;13.40;99.90;;;;;;5086416;28;20044;-86
2023/09/22 06:31:06;;;;;;;22.17;14.38;;;13.40;99.90;;;;;;5085210;28;20044;-88
2023/09/22 06:33:32;;;;;;;21.30;13.90;;;13.50;99.90;;;;;;5070524;28;20035;-88
2023/09/22 06:36:07;;;;;;;23.60;13.15;;;13.50;99.90;;;;;;5064663;28;20039;-88
2023/09/22 06:38:33;;;;;;;20.30;13.23;;;13.60;99.90;;;;;;5071020;28;20505;-88
2023/09/22 06:41:04;;;;;;;19.02;13.07;;;13.60;99.90;;;;;;5101325;28;20032;-88
2023/09/22 06:43:30;;;;;;;19.60;12.82;;;13.60;99.90;;;;;;5070593;28;20038;-88
2023/09/22 06:45:58;;;;;;;19.70;12.85;;;13.60;99.90;;;;;;5069981;28;20491;-87
2023/09/22 06:48:28;;;;;;;17.15;12.23;;;13.70;99.90;;;;;;5089935;28;20052;-88
2023/09/22 06:51:00;;;;;;;17.45;11.75;;;13.70;99.90;;;;;;5089978;28;20031;-88
2023/09/22 06:53:29;;;;;;;19.23;13.18;;;13.70;99.90;;;;;;5070902;28;20071;-88
2023/09/22 06:56:09;;;;;;;19.88;12.55;;;13.70;99.90;;;;;;5086838;28;20478;-88
2023/09/22 06:58:37;;;;;;;21.20;11.82;;;13.80;99.90;;;;;;5108662;28;20032;-88
2023/09/22 07:01:10;;;;;;;16.85;11.43;;;13.90;99.90;;;;;;5085988;28;20451;-88
2023/09/22 07:03:46;;;;;;;18.15;12.75;;;13.90;99.90;;;;;;5075952;28;21415;-87
2023/09/22 07:06:14;;;;;;;16.85;11.65;;;13.90;99.90;;;;;;5066189;28;20032;-87
2023/09/22 07:08:41;;;;;;;16.23;11.07;;;13.90;99.90;;;;;;5069779;28;20116;-87
2023/09/22 07:11:08;;;;;;;16.90;11.02;;;14.10;99.90;;;;;;5087799;28;20035;-84
2023/09/22 07:13:35;;;;;;;17.00;12.05;;;14.10;99.90;;;;;;5091548;28;20032;-86
2023/09/22 07:16:01;;;;;;;15.23;11.40;;;14.10;99.90;;;;;;5092837;28;20061;-86
2023/09/22 07:18:29;;;;;;;18.15;11.68;;;14.20;99.90;;;;;;5066605;28;20040;-85
2023/09/22 07:20:55;;;;;;;16.05;11.40;;;14.30;99.90;;;;;;5068521;28;20028;-88
2023/09/22 07:23:25;;;;;;;15.50;10.73;;;14.30;99.90;;;;;;5085224;28;20062;-86
2023/09/22 07:26:20;;;;;;;15.68;10.57;;;14.40;99.90;;;;;;5072947;28;20046;-86
2023/09/22 07:28:49;;;;;;;15.15;10.75;;;14.60;99.90;;;;;;5049413;28;20900;-87
2023/09/22 07:31:28;;;;;;;13.85;10.32;;;14.60;99.90;;;;;;5074373;28;20078;-85
2023/09/22 07:33:53;;;;;;;11.48;9.50;;;14.70;99.90;;;;;;5085888;28;20500;-85
2023/09/22 07:36:19;;;;;;;13.80;11.35;;;14.70;99.90;;;;;;5070999;28;20076;-86
2023/09/22 07:38:45;;;;;;;15.45;9.85;;;14.80;99.90;;;;;;5068170;28;20047;-85
2023/09/22 07:41:11;;;;;;;12.98;9.68;;;14.80;99.90;;;;;;5065250;28;20032;-85
2023/09/22 07:43:36;;;;;;;15.18;10.35;;;14.80;99.90;;;;;;5067125;28;20101;-85
2023/09/22 07:46:08;;;;;;;12.82;9.75;;;14.80;99.90;;;;;;5084809;28;20071;-85
2023/09/22 07:48:40;;;;;;;13.82;9.43;;;14.80;99.90;;;;;;5069755;28;20035;-85
2023/09/22 07:51:06;;;;;;;15.77;9.82;;;14.80;99.90;;;;;;5064604;28;20043;-85
2023/09/22 07:53:33;;;;;;;12.70;9.38;;;14.70;99.90;;;;;;5069789;28;20036;-85
2023/09/22 07:56:01;;;;;;;12.18;9.00;;;14.70;99.90;;;;;;5090619;28;20089;-85
2023/09/22 07:58:30;;;;;;;10.55;9.32;;;14.60;99.90;;;;;;5080414;28;20130;-85
2023/09/22 08:00:59;;;;;;;11.98;8.32;;;14.70;99.90;;;;;;5070650;28;20038;-85
2023/09/22 08:03:25;;;;;;;9.27;7.80;;;14.70;99.90;;;;;;5067647;28;20036;-85
2023/09/22 08:05:53;;;;;;;9.13;7.32;;;14.80;99.90;;;;;;5084916;28;20043;-86
2023/09/22 08:08:19;;;;;;;8.55;6.40;;;15.00;99.90;;;;;;5080648;28;20076;-86
2023/09/22 08:10:45;;;;;;;9.20;5.70;;;14.90;99.90;;;;;;5081191;28;20039;-86
2023/09/22 08:13:13;;;;;;;6.18;5.32;;;15.00;99.90;;;;;;5086186;28;20641;-86
2023/09/22 08:15:39;;;;;;;7.13;5.80;;;15.20;99.90;;;;;;5085188;28;20141;-86
2023/09/22 08:18:10;;;;;;;8.57;5.68;;;15.40;99.90;;;;;;5081874;28;20501;-84
2023/09/22 08:20:39;;;;;;;9.05;5.70;;;15.60;99.90;;;;;;5065796;28;20036;-85
2023/09/22 08:23:05;;;;;;;7.93;6.07;;;15.50;99.90;;;;;;5067501;28;20039;-87
2023/09/22 08:25:30;;;;;;;6.85;6.13;;;15.60;99.90;;;;;;5063091;28;20063;-85
2023/09/22 08:27:56;;;;;;;7.60;5.72;;;15.60;99.90;;;;;;5062521;28;20086;-85
2023/09/22 08:30:23;;;;;;;6.63;5.30;;;15.60;99.90;;;;;;5065625;28;20024;-86
2023/09/22 08:32:49;;;;;;;5.05;4.60;;;15.80;99.90;;;;;;5081980;28;20050;-85
2023/09/22 08:35:15;;;;;;;8.13;5.15;;;16.10;99.90;;;;;;5081173;28;20047;-86
2023/09/22 08:37:47;;;;;;;6.25;4.63;;;16.50;99.90;;;;;;5080336;28;20091;-85
2023/09/22 08:40:17;;;;;;;6.20;4.47;;;16.60;99.90;;;;;;5064466;28;20134;-85
2023/09/22 08:42:48;;;;;;;5.32;3.83;;;16.70;99.90;;;;;;5068344;28;20046;-85
2023/09/22 08:45:16;;;;;;;5.03;3.50;;;17.20;99.90;;;;;;5068297;28;20031;-85
2023/09/22 08:47:47;;;;;;;4.40;2.53;;;17.70;99.90;;;;;;5069099;28;20036;-86
2023/09/22 08:50:15;;;;;;;4.85;2.63;;;18.30;99.90;;;;;;5074028;28;20036;-86
2023/09/22 08:52:43;;;;;;;2.72;2.33;;;18.60;99.90;;;;;;5066478;28;20052;-85
2023/09/22 08:55:16;;;;;;;3.40;2.30;;;18.70;99.90;;;;;;5073090;28;20119;-86
2023/09/22 08:57:44;;;;;;;4.70;2.65;;;19.00;99.90;;;;;;5088855;28;20058;-86
2023/09/22 09:00:18;;;;;;;2.70;2.22;;;19.50;99.90;;;;;;5085334;28;20092;-85
2023/09/22 09:02:51;;;;;;;3.10;2.25;;;19.70;99.90;;;;;;5094024;28;20497;-86
2023/09/22 09:05:30;;;;;;;2.25;2.05;;;19.90;99.90;;;;;;5083489;28;20078;-84
2023/09/22 09:08:13;;;;;;;3.17;2.00;;;19.60;99.90;;;;;;5087925;28;20084;-86
2023/09/22 09:10:40;;;;;;;3.42;2.20;;;19.00;99.90;;;;;;5089746;28;20497;-85
2023/09/22 09:13:07;;;;;;;4.13;2.22;;;18.50;99.90;;;;;;5087988;28;20070;-85
2023/09/22 09:15:47;;;;;;;2.97;2.17;;;18.10;99.90;;;;;;5081420;28;20043;-85
2023/09/22 09:18:16;;;;;;;2.63;2.17;;;17.90;99.90;;;;;;5094109;28;20035;-85
2023/09/22 09:20:43;;;;;;;2.80;2.60;;;18.00;99.90;;;;;;5063110;28;20036;-86
2023/09/22 09:23:20;;;;;;;4.10;2.13;;;18.30;99.90;;;;;;5089909;28;20435;-86
2023/09/22 09:25:54;;;;;;;3.40;1.90;;;18.70;99.90;;;;;;5089948;28;20059;-86
2023/09/22 09:28:20;;;;;;;3.15;1.90;;;18.80;99.90;;;;;;5087861;28;20027;-85
2023/09/22 09:30:57;;;;;;;3.17;1.80;;;18.90;99.90;;;;;;5081017;28;20135;-85
2023/09/22 09:33:28;;;;;;;3.55;1.77;;;19.10;99.90;;;;;;5086198;28;20074;-85
2023/09/22 09:35:59;;;;;;;3.38;1.80;;;19.10;99.90;;;;;;5065283;28;20060;-85
2023/09/22 09:38:29;;;;;;;1.90;1.80;;;18.80;99.90;;;;;;5071236;28;20078;-86
2023/09/22 09:41:01;;;;;;;4.15;1.92;;;18.80;99.90;;;;;;5089485;28;20085;-85
2023/09/22 09:43:27;;;;;;;4.07;1.55;;;19.00;99.90;;;;;;5089652;28;20512;-85
2023/09/22 09:45:57;;;;;;;3.65;1.95;;;19.10;99.90;;;;;;5081609;28;20111;-86
2023/09/22 09:48:37;;;;;;;2.10;1.30;;;19.40;99.90;;;;;;5065591;28;20036;-85
2023/09/22 09:51:07;;;;;;;2.45;1.10;;;19.30;99.90;;;;;;5080814;28;20028;-85
2023/09/22 09:53:43;;;;;;;1.85;1.30;;;19.20;99.90;;;;;;5100191;28;20042;-85
2023/09/22 09:56:13;;;;;;;2.15;1.52;;;18.90;99.90;;;;;;5118060;28;20033;-84
2023/09/22 09:58:39;;;;;;;2.78;1.40;;;18.60;99.90;;;;;;5092441;27;20019;-86
2023/09/22 10:01:06;;;;;;;3.55;1.30;;;18.60;99.90;;;;;;5077120;28;20032;-86
2023/09/22 10:03:33;;;;;;;1.52;1.30;;;18.40;99.90;;;;;;5069284;28;20032;-86
2023/09/22 10:06:02;;;;;;;1.38;1.23;;;18.50;99.90;;;;;;5078943;28;20081;-86
2023/09/22 10:08:28;;;;;;;1.50;1.10;;;18.70;99.90;;;;;;5066922;28;20048;-85
2023/09/22 10:10:59;;;;;;;1.90;1.10;;;19.10;99.90;;;;;;5065843;28;20047;-86
2023/09/22 10:13:26;;;;;;;1.83;1.00;;;19.50;99.90;;;;;;5074802;28;20036;-86
2023/09/22 10:15:57;;;;;;;1.30;1.20;;;19.70;99.90;;;;;;5072945;28;20047;-86
2023/09/22 10:18:44;;;;;;;1.92;1.20;;;19.50;99.90;;;;;;5087141;28;20036;-86
2023/09/22 10:21:33;;;;;;;2.60;1.00;;;19.60;99.90;;;;;;5107394;28;20032;-86
2023/09/22 10:24:23;;;;;;;2.35;1.23;;;20.00;99.90;;;;;;5069189;28;20692;-86
2023/09/22 10:26:55;;;;;;;1.40;0.90;;;20.30;99.90;;;;;;5073442;28;20061;-86
2023/09/22 10:29:33;;;;;;;1.33;1.00;;;20.70;99.90;;;;;;5091059;28;20111;-86
2023/09/22 10:32:26;;;;;;;2.25;1.10;;;20.90;99.90;;;;;;5069135;28;20042;-86
2023/09/22 10:35:09;;;;;;;2.38;1.33;;;20.60;99.90;;;;;;5070537;28;20066;-86
2023/09/22 10:37:35;;;;;;;1.30;1.20;;;20.20;99.90;;;;;;5068601;28;20132;-86
2023/09/22 10:40:14;;;;;;;2.40;1.30;;;19.60;99.90;;;;;;5078575;28;20059;-86
2023/09/22 10:42:44;;;;;;;1.75;1.42;;;19.20;99.90;;;;;;5075952;28;20038;-86
2023/09/22 10:45:10;;;;;;;1.40;0.95;;;19.20;99.90;;;;;;5073971;28;20032;-86
2023/09/22 10:47:44;;;;;;;4.03;1.52;;;19.50;99.90;;;;;;5092500;28;20044;-86
2023/09/22 10:50:17;;;;;;;2.83;1.42;;;20.10;99.90;;;;;;5084520;28;20039;-83
2023/09/22 10:52:53;;;;;;;1.10;0.90;;;20.50;99.90;;;;;;5108245;28;20169;-85
2023/09/22 10:55:40;;;;;;;1.83;1.15;;;21.10;99.90;;;;;;5073761;28;20046;-87
2023/09/22 10:58:15;;;;;;;2.35;1.30;;;21.60;99.90;;;;;;5089867;28;20055;-87
2023/09/22 11:00:54;;;;;;;2.10;1.02;;;21.60;99.90;;;;;;5066009;28;20078;-87
2023/09/22 11:03:20;;;;;;;1.70;0.90;;;21.60;99.90;;;;;;5089003;28;20506;-86
2023/09/22 11:06:00;;;;;;;0.85;0.65;;;21.70;99.90;;;;;;5068021;28;20122;-86
2023/09/22 11:08:26;;;;;;;1.52;0.68;;;21.80;99.90;;;;;;5081582;28;20051;-86
2023/09/22 11:10:53;;;;;;;1.73;0.98;;;22.00;99.90;;;;;;5063417;28;20043;-86
2023/09/22 11:13:21;;;;;;;4.53;0.90;;;22.30;99.90;;;;;;5075736;28;20123;-87
2023/09/22 11:15:57;;;;;;;2.05;0.70;;;22.20;97.70;;;;;;5086066;28;20039;-86
2023/09/22 11:18:35;;;;;;;1.23;0.80;;;22.30;97.50;;;;;;5067941;28;20082;-87
2023/09/22 11:21:10;;;;;;;1.55;0.70;;;22.40;97.80;;;;;;5066357;28;20039;-86
2023/09/22 11:23:41;;;;;;;1.88;0.73;;;22.40;95.60;;;;;;5072675;28;20027;-85
2023/09/22 11:26:09;;;;;;;1.77;0.90;;;21.90;96.40;;;;;;5080828;28;20040;-85
2023/09/22 11:28:48;;;;;;;1.05;0.70;;;21.40;97.40;;;;;;5082072;28;20044;-85
2023/09/22 11:31:19;;;;;;;1.13;0.75;;;20.80;97.50;;;;;;5066254;28;20582;-86
2023/09/22 11:33:58;;;;;;;2.20;1.00;;;20.20;97.80;;;;;;5085119;28;20074;-86
2023/09/22 11:36:23;;;;;;;2.08;1.15;;;19.90;99.40;;;;;;5080009;28;20055;-86
2023/09/22 11:38:55;;;;;;;0.80;0.80;;;19.40;99.90;;;;;;5084473;28;20031;-86
2023/09/22 11:41:22;;;;;;;1.00;0.90;;;19.40;99.90;;;;;;5085951;28;20043;-86
2023/09/22 11:43:50;;;;;;;2.90;0.80;;;19.20;99.90;;;;;;5065509;28;20073;-83
2023/09/22 11:46:22;;;;;;;1.83;1.02;;;19.50;99.90;;;;;;5068944;28;20107;-83
2023/09/22 11:48:59;;;;;;;0.75;0.73;;;19.70;99.90;;;;;;5076932;28;20043;-86
2023/09/22 11:51:54;;;;;;;0.90;0.73;;;19.90;99.90;;;;;;5088482;28;20081;-84
2023/09/22 11:54:25;;;;;;;1.52;0.82;;;19.70;99.90;;;;;;5058397;28;20086;-84
2023/09/22 11:56:54;;;;;;;1.83;0.77;;;20.00;99.90;;;;;;5077727;28;20038;-84
2023/09/22 11:59:22;;;;;;;2.85;0.80;;;21.20;99.90;;;;;;5082051;28;20042;-84
2023/09/22 12:01:51;;;;;;;1.30;0.90;;;22.40;99.90;;;;;;5077768;28;20198;-84
2023/09/22 12:04:22;;;;;;;1.33;0.65;;;23.10;98.10;;;;;;5078068;28;20058;-84
2023/09/22 12:06:51;;;;;;;2.17;1.10;;;23.60;96.10;;;;;;5089331;28;20517;-84
2023/09/22 12:09:17;;;;;;;1.05;0.70;;;23.60;94.20;;;;;;5066856;28;20422;-82
2023/09/22 12:11:44;;;;;;;1.15;0.65;;;22.90;93.00;;;;;;5065600;28;20036;-85
2023/09/22 12:14:11;;;;;;;2.78;0.70;;;22.00;93.50;;;;;;5082582;28;20039;-85
2023/09/22 12:16:37;;;;;;;1.23;0.68;;;21.20;94.30;;;;;;5073487;28;20054;-84
2023/09/22 12:19:06;;;;;;;0.73;0.63;;;21.00;95.10;;;;;;5080577;28;20391;-84
2023/09/22 12:21:32;;;;;;;1.20;0.70;;;21.40;95.80;;;;;;5086013;28;20031;-85
2023/09/22 12:23:58;;;;;;;3.25;0.80;;;22.20;95.10;;;;;;5066502;28;20039;-85
2023/09/22 12:26:24;;;;;;;1.10;0.75;;;22.50;93.90;;;;;;5083923;28;20040;-85
2023/09/22 12:28:51;;;;;;;1.60;0.80;;;22.10;93.20;;;;;;5083004;28;20036;-84
2023/09/22 12:31:18;;;;;;;1.85;0.90;;;21.60;93.40;;;;;;5064824;28;20629;-85
2023/09/22 12:33:45;;;;;;;1.80;0.80;;;21.10;94.10;;;;;;5073558;28;20031;-85
2023/09/22 12:36:14;;;;;;;0.82;0.77;;;20.90;94.40;;;;;;5081893;28;20558;-84
2023/09/22 12:38:43;;;;;;;1.48;0.70;;;20.80;94.40;;;;;;5073854;28;20062;-84
2023/09/22 12:41:10;;;;;;;1.05;0.80;;;20.70;94.70;;;;;;5087189;28;20510;-84
2023/09/22 12:43:36;;;;;;;1.13;0.80;;;20.30;95.00;;;;;;5086273;28;20043;-84
2023/09/22 12:46:06;;;;;;;2.40;1.00;;;20.10;95.50;;;;;;5087537;28;20039;-83